createdAt,value
2022-10-05T00:04:58.882Z,7.35
2022-10-05T00:09:59.736Z,6.03
2022-10-05T00:15:01.972Z,6.53
2022-10-05T00:20:02.627Z,5.03
2022-10-05T00:25:03.138Z,5.28
2022-10-05T00:30:11.555Z,5.60
2022-10-05T00:35:13.071Z,5.35
2022-10-05T00:40:24.141Z,5.57
2022-10-05T00:45:28.406Z,6.82
2022-10-05T00:50:55.716Z,5.15
2022-10-05T00:56:02.607Z,6.50
2022-10-05T01:01:10.780Z,6.45
2022-10-05T01:06:22.693Z,7.03
2022-10-05T01:11:29.137Z,7.32
2022-10-05T01:16:37.217Z,6.65
2022-10-05T01:21:43.850Z,6.38
2022-10-05T01:27:20.536Z,5.63
2022-10-05T01:32:27.162Z,5.00
2022-10-05T01:37:31.422Z,9.07
2022-10-05T01:42:45.464Z,6.50
2022-10-05T01:47:49.279Z,5.60
2022-10-05T01:52:57.690Z,6.85
2022-10-05T01:58:08.842Z,5.68
2022-10-05T02:03:14.841Z,5.15
2022-10-05T02:08:17.896Z,6.38
2022-10-05T02:13:24.034Z,4.45
2022-10-05T02:18:28.984Z,5.68
2022-10-05T02:23:33.967Z,4.07
2022-10-05T02:28:38.155Z,10.85
2022-10-05T02:33:38.751Z,9.07
2022-10-05T02:39:01.799Z,7.15
2022-10-05T02:44:12.194Z,6.47
2022-10-05T02:49:20.849Z,4.35
2022-10-05T02:54:33.723Z,8.38
2022-10-05T02:59:47.925Z,7.03
2022-10-05T03:05:09.438Z,4.50
2022-10-05T03:10:28.766Z,6.22
2022-10-05T03:15:43.990Z,6.20
2022-10-05T03:20:50.247Z,5.95
2022-10-05T03:26:10.232Z,6.30
2022-10-05T03:31:22.888Z,5.38
2022-10-05T03:36:34.051Z,10.37
2022-10-05T03:41:39.128Z,8.73
2022-10-05T03:46:50.732Z,6.00
2022-10-05T03:51:56.985Z,8.52
2022-10-05T03:56:58.671Z,8.98
2022-10-05T04:02:01.539Z,10.05
2022-10-05T04:07:07.489Z,11.52
2022-10-05T04:12:17.549Z,15.40
2022-10-05T04:17:23.183Z,11.98
2022-10-05T04:22:29.373Z,11.10
2022-10-05T04:27:34.646Z,11.13
2022-10-05T04:32:38.941Z,11.30
2022-10-05T04:37:51.894Z,9.88
2022-10-05T04:43:00.948Z,8.70
2022-10-05T04:48:20.454Z,9.32
2022-10-05T04:53:30.881Z,8.07
2022-10-05T04:58:45.966Z,12.15
2022-10-05T05:04:08.512Z,13.70
2022-10-05T05:09:43.847Z,9.50
2022-10-05T05:15:04.464Z,8.48
2022-10-05T05:20:18.426Z,9.18
2022-10-05T05:25:31.343Z,9.05
2022-10-05T05:30:38.769Z,7.40
2022-10-05T05:36:04.550Z,8.57
2022-10-05T05:41:10.929Z,12.90
2022-10-05T05:46:18.027Z,17.40
2022-10-05T05:51:22.230Z,8.05
2022-10-05T05:56:32.226Z,17.67
2022-10-05T06:01:35.032Z,12.80
2022-10-05T06:06:44.057Z,13.85
2022-10-05T06:11:50.147Z,13.68
2022-10-05T06:16:54.958Z,13.02
2022-10-05T06:22:01.198Z,13.93
2022-10-05T06:27:25.841Z,12.35
2022-10-05T06:32:31.336Z,9.82
2022-10-05T06:37:49.711Z,9.55
2022-10-05T06:43:09.724Z,10.77
2022-10-05T06:48:17.584Z,12.25
2022-10-05T06:53:52.989Z,12.95
2022-10-05T06:59:01.151Z,17.13
2022-10-05T07:04:21.367Z,17.83
2022-10-05T07:09:32.944Z,10.23
2022-10-05T07:14:50.513Z,8.15
2022-10-05T07:19:59.547Z,8.93
2022-10-05T07:25:03.960Z,9.57
2022-10-05T07:30:07.720Z,5.25
2022-10-05T07:35:29.496Z,7.45
2022-10-05T07:40:34.537Z,4.93
2022-10-05T07:45:46.357Z,7.57
2022-10-05T07:51:00.086Z,6.83
2022-10-05T07:56:04.849Z,5.85
2022-10-05T08:01:17.067Z,7.20
2022-10-05T08:11:25.854Z,6.22
2022-10-05T08:16:32.265Z,7.25
2022-10-05T08:21:37.439Z,5.75
2022-10-05T08:26:43.399Z,7.20
2022-10-05T08:31:48.997Z,7.45
2022-10-05T08:36:56.415Z,6.75
2022-10-05T08:42:18.803Z,7.13
2022-10-05T08:47:29.055Z,11.65
2022-10-05T08:52:30.413Z,6.57
2022-10-05T08:58:04.870Z,5.63
2022-10-05T09:03:22.949Z,5.20
2022-10-05T09:08:45.485Z,4.22
2022-10-05T09:19:27.800Z,9.50
2022-10-05T09:24:29.736Z,4.78
2022-10-05T09:35:07.326Z,6.68
2022-10-05T09:40:51.105Z,6.25
2022-10-05T09:46:17.370Z,4.88
2022-10-05T09:51:40.391Z,7.95
2022-10-05T09:57:05.587Z,6.20
2022-10-05T10:02:30.755Z,5.75
2022-10-05T10:07:54.043Z,5.43
2022-10-05T10:13:05.860Z,4.32
2022-10-05T10:18:40.544Z,6.70
2022-10-05T10:24:06.894Z,6.55
2022-10-05T10:29:32.513Z,5.47
2022-10-05T10:35:04.160Z,4.70
2022-10-05T10:40:23.435Z,7.05
2022-10-05T10:45:45.544Z,6.13
2022-10-05T10:51:19.342Z,6.07
2022-10-05T10:56:32.709Z,6.07
2022-10-05T11:01:36.476Z,3.72
2022-10-05T11:07:13.951Z,10.07
2022-10-05T11:12:49.083Z,4.57
2022-10-05T11:18:07.954Z,5.47
2022-10-05T11:23:34.167Z,3.85
2022-10-05T11:28:54.274Z,7.28
2022-10-05T11:34:39.766Z,7.05
2022-10-05T11:39:44.726Z,4.63
2022-10-05T11:45:25.112Z,4.35
2022-10-05T11:50:34.081Z,5.82
2022-10-05T11:55:38.699Z,4.10
2022-10-05T12:00:43.897Z,3.75
2022-10-05T12:05:59.906Z,6.55
2022-10-05T12:11:09.357Z,5.72
2022-10-05T12:16:16.843Z,3.95
2022-10-05T12:21:27.786Z,3.90
2022-10-05T12:26:31.218Z,2.95
2022-10-05T12:31:41.751Z,3.75
2022-10-05T12:37:04.976Z,4.55
2022-10-05T12:42:17.413Z,5.25
2022-10-05T12:47:27.409Z,5.50
2022-10-05T12:52:44.001Z,6.75
2022-10-05T12:57:51.033Z,9.00
2022-10-05T13:02:52.131Z,6.68
2022-10-05T13:08:12.922Z,3.92
2022-10-05T13:13:34.322Z,4.63
2022-10-05T13:18:43.055Z,4.70
2022-10-05T13:23:57.653Z,5.07
2022-10-05T13:29:01.416Z,3.30
2022-10-05T13:34:12.820Z,3.22
2022-10-05T13:39:25.046Z,3.55
2022-10-05T13:44:32.481Z,9.57
2022-10-05T13:49:40.239Z,3.97
2022-10-05T13:54:46.279Z,7.65
2022-10-05T13:59:54.549Z,2.17
2022-10-05T14:05:01.633Z,3.13
2022-10-05T14:10:04.710Z,1.42
2022-10-05T14:15:21.356Z,1.95
2022-10-05T14:20:25.151Z,4.68
2022-10-05T14:25:25.494Z,2.28
2022-10-05T14:30:25.894Z,1.65
2022-10-05T14:35:30.069Z,6.13
2022-10-05T14:40:33.231Z,6.07
2022-10-05T14:45:33.496Z,4.28
2022-10-05T14:50:33.044Z,4.47
2022-10-05T14:56:01.289Z,6.18
2022-10-05T15:01:11.299Z,5.72
2022-10-05T15:11:21.776Z,4.80
2022-10-05T15:16:25.804Z,6.85
2022-10-05T15:21:50.314Z,5.60
2022-10-05T15:26:52.706Z,6.45
2022-10-05T15:31:59.535Z,7.60
2022-10-05T15:37:03.370Z,4.15
2022-10-05T15:42:11.708Z,5.88
2022-10-05T15:47:20.287Z,8.63
2022-10-05T15:52:28.300Z,14.30
2022-10-05T15:57:42.173Z,12.95
2022-10-05T16:02:47.448Z,15.13
2022-10-05T16:08:10.710Z,12.73
2022-10-05T16:13:21.262Z,17.17
2022-10-05T16:18:43.192Z,15.37
2022-10-05T16:23:58.874Z,18.20
2022-10-05T16:29:06.538Z,16.58
2022-10-05T16:34:19.174Z,16.00
2022-10-05T16:39:27.035Z,13.05
2022-10-05T16:44:38.667Z,20.83
2022-10-05T16:49:45.703Z,14.88
2022-10-05T16:54:49.001Z,19.38
2022-10-05T17:00:13.469Z,16.95
2022-10-05T17:05:30.917Z,11.25
2022-10-05T17:10:47.468Z,23.63
2022-10-05T17:16:03.563Z,23.23
2022-10-05T17:21:11.070Z,15.40
2022-10-05T17:26:34.858Z,15.80
2022-10-05T17:32:01.868Z,14.82
2022-10-05T17:37:17.495Z,20.08
2022-10-05T17:42:48.614Z,24.27
2022-10-05T17:47:57.822Z,25.77
2022-10-05T17:53:38.762Z,27.63
2022-10-05T17:59:02.772Z,17.00
2022-10-05T18:04:38.984Z,21.73
2022-10-05T18:09:56.183Z,33.28
2022-10-05T18:15:02.122Z,25.33
2022-10-05T18:20:35.369Z,17.45
2022-10-05T18:25:45.231Z,17.40
2022-10-05T18:31:01.997Z,18.08
2022-10-05T18:36:13.265Z,26.92
2022-10-05T18:41:22.713Z,25.67
2022-10-05T18:46:31.786Z,31.30
2022-10-05T18:51:41.516Z,32.42
2022-10-05T18:56:46.263Z,20.45
2022-10-05T19:02:14.089Z,20.10
2022-10-05T19:07:27.721Z,18.98
2022-10-05T19:12:40.625Z,15.07
2022-10-05T19:18:13.455Z,15.20
2022-10-05T19:23:33.613Z,16.08
2022-10-05T19:28:38.432Z,20.38
2022-10-05T19:33:57.187Z,14.77
2022-10-05T19:39:08.148Z,10.40
2022-10-05T19:44:20.023Z,11.27
2022-10-05T19:49:37.511Z,9.17
2022-10-05T19:54:37.736Z,7.43
2022-10-05T19:59:40.582Z,9.88
2022-10-05T20:04:44.760Z,11.30
2022-10-05T20:09:53.624Z,9.32
2022-10-05T20:15:27.543Z,8.55
2022-10-05T20:20:36.633Z,10.88
2022-10-05T20:25:40.336Z,7.55
2022-10-05T20:30:39.110Z,8.30
2022-10-05T20:35:37.808Z,6.43
2022-10-05T20:40:39.096Z,8.77
2022-10-05T20:45:43.845Z,6.30
2022-10-05T20:50:42.601Z,11.57
2022-10-05T20:55:43.177Z,10.20
2022-10-05T21:00:59.487Z,6.88
2022-10-05T21:05:59.346Z,6.05
2022-10-05T21:10:59.836Z,7.85
2022-10-05T21:15:58.625Z,7.60
2022-10-05T21:21:01.397Z,6.80
2022-10-05T21:26:02.711Z,5.45
2022-10-05T21:31:01.526Z,9.13
2022-10-05T21:36:00.408Z,6.13
2022-10-05T21:40:59.565Z,7.30
2022-10-05T21:46:01.116Z,7.20
2022-10-05T21:51:00.931Z,4.13
2022-10-05T21:56:02.888Z,4.90
2022-10-05T22:01:03.410Z,9.05
2022-10-05T22:06:03.774Z,4.80
2022-10-05T22:11:10.234Z,4.20
2022-10-05T22:16:10.894Z,5.22
2022-10-05T22:21:12.437Z,3.58
2022-10-05T22:26:13.717Z,3.50
2022-10-05T22:31:14.975Z,2.95
2022-10-05T22:36:13.803Z,3.97
2022-10-05T22:41:13.291Z,2.72
2022-10-05T22:46:14.623Z,6.47
2022-10-05T22:51:13.894Z,5.65
2022-10-05T22:56:14.262Z,3.95
2022-10-05T23:01:16.840Z,4.75
2022-10-05T23:06:18.349Z,5.53
2022-10-05T23:11:19.263Z,4.85
2022-10-05T23:16:21.186Z,4.63
2022-10-05T23:21:20.847Z,4.40
2022-10-05T23:26:22.996Z,3.08
2022-10-05T23:31:25.581Z,3.53
2022-10-05T23:36:25.873Z,14.98
2022-10-05T23:41:25.071Z,5.40
2022-10-05T23:46:25.788Z,3.53
2022-10-05T23:51:24.541Z,4.72
2022-10-05T23:56:23.382Z,4.70
